createdAt,value
2017-09-08T00:00:10.916Z,16.15
2017-09-08T00:00:51.451Z,16.15
2017-09-08T00:01:31.994Z,16.11
2017-09-08T00:02:12.532Z,16.12
2017-09-08T00:02:53.074Z,16.14
2017-09-08T00:03:33.611Z,16.09
2017-09-08T00:04:14.143Z,16.02
2017-09-08T00:04:54.681Z,16.09
2017-09-08T00:05:35.219Z,16.01
2017-09-08T00:06:15.757Z,16.08
2017-09-08T00:06:56.291Z,16.11
2017-09-08T00:07:36.829Z,16.01
2017-09-08T00:08:17.366Z,16.01
2017-09-08T00:08:57.909Z,16.05
2017-09-08T00:09:38.428Z,16.05
2017-09-08T00:10:18.966Z,16.02
2017-09-08T00:10:59.505Z,16.02
2017-09-08T00:11:40.039Z,15.92
2017-09-08T00:12:20.566Z,16
2017-09-08T00:13:01.099Z,16.04
2017-09-08T00:13:41.637Z,16.02
2017-09-08T00:14:22.177Z,16.02
2017-09-08T00:15:02.714Z,16.02
2017-09-08T00:15:43.237Z,16.01
2017-09-08T00:16:23.766Z,16.01
2017-09-08T00:17:04.285Z,16.02
2017-09-08T00:17:44.822Z,16.01
2017-09-08T00:18:25.397Z,15.97
2017-09-08T00:19:05.924Z,16.12
2017-09-08T00:19:46.464Z,16.05
2017-09-08T00:20:27.005Z,16.01
2017-09-08T00:21:07.529Z,16.01
2017-09-08T00:21:48.069Z,16.02
2017-09-08T00:22:28.605Z,16
2017-09-08T00:23:09.209Z,16
2017-09-08T00:23:49.742Z,16.01
2017-09-08T00:24:30.281Z,16
2017-09-08T00:25:10.820Z,16.04
2017-09-08T00:25:51.342Z,15.97
2017-09-08T00:26:31.875Z,16.07
2017-09-08T00:27:12.410Z,15.94
2017-09-08T00:27:52.947Z,15.96
2017-09-08T00:28:33.477Z,16.04
2017-09-08T00:29:14.012Z,16.02
2017-09-08T00:29:54.536Z,16.01
2017-09-08T00:30:35.069Z,16
2017-09-08T00:31:15.608Z,16.04
2017-09-08T00:31:56.146Z,16
2017-09-08T00:32:36.675Z,16.02
2017-09-08T00:33:17.204Z,16.04
2017-09-08T00:33:57.757Z,16.01
2017-09-08T00:34:38.298Z,15.89
2017-09-08T00:35:18.836Z,16.01
2017-09-08T00:35:59.372Z,16.02
2017-09-08T00:36:39.909Z,15.92
2017-09-08T00:37:20.437Z,15.9
2017-09-08T00:38:00.988Z,16.01
2017-09-08T00:38:41.500Z,16.07
2017-09-08T00:39:22.037Z,16.04
2017-09-08T00:40:02.581Z,15.92
2017-09-08T00:40:43.119Z,16.07
2017-09-08T00:41:23.647Z,15.9
2017-09-08T00:42:04.177Z,16
2017-09-08T00:42:44.708Z,16.01
2017-09-08T00:43:25.253Z,16
2017-09-08T00:44:05.801Z,16.01
2017-09-08T00:44:46.311Z,16
2017-09-08T00:45:26.849Z,16.01
2017-09-08T00:46:07.387Z,15.96
2017-09-08T00:46:47.918Z,16
2017-09-08T00:47:28.458Z,15.97
2017-09-08T00:48:09.006Z,16.02
2017-09-08T00:48:49.545Z,16.04
2017-09-08T00:49:30.085Z,16
2017-09-08T00:50:10.621Z,16.05
2017-09-08T00:50:51.162Z,15.97
2017-09-08T00:51:31.692Z,15.9
2017-09-08T00:52:12.234Z,16.01
2017-09-08T00:52:52.766Z,15.96
2017-09-08T00:53:33.300Z,16.01
2017-09-08T00:54:13.840Z,16.01
2017-09-08T00:54:54.417Z,16.04
2017-09-08T00:55:34.916Z,15.97
2017-09-08T00:56:15.456Z,16.01
2017-09-08T00:56:55.985Z,16.04
2017-09-08T00:57:36.517Z,16.05
2017-09-08T00:58:17.064Z,16
2017-09-08T00:58:57.600Z,16
2017-09-08T00:59:38.133Z,16.04
2017-09-08T01:00:18.669Z,16.05
2017-09-08T01:00:59.207Z,16.04
2017-09-08T01:01:39.733Z,15.94
2017-09-08T01:02:20.269Z,16
2017-09-08T01:03:00.793Z,16.01
2017-09-08T01:03:41.326Z,16.04
2017-09-08T01:04:21.862Z,15.97
2017-09-08T01:05:02.396Z,16
2017-09-08T01:05:42.933Z,16
2017-09-08T01:06:23.473Z,16.01
2017-09-08T01:07:04.013Z,15.97
2017-09-08T01:07:44.553Z,16.11
2017-09-08T01:08:25.097Z,16.04
2017-09-08T01:09:05.625Z,16.04
2017-09-08T01:09:46.240Z,16.04
2017-09-08T01:10:26.761Z,16.07
2017-09-08T01:11:07.293Z,16.09
2017-09-08T01:11:47.822Z,16.01
2017-09-08T01:12:28.357Z,16.04
2017-09-08T01:13:08.932Z,16
2017-09-08T01:13:49.466Z,16.05
2017-09-08T01:14:30.003Z,16.08
2017-09-08T01:15:10.543Z,15.97
2017-09-08T01:15:51.083Z,16.01
2017-09-08T01:16:31.609Z,16.05
2017-09-08T01:17:12.151Z,16.04
2017-09-08T01:17:52.672Z,16
2017-09-08T01:18:33.214Z,16.14
2017-09-08T01:19:13.740Z,16.01
2017-09-08T01:19:54.271Z,16.01
2017-09-08T01:20:34.812Z,16.05
2017-09-08T01:21:15.337Z,16.01
2017-09-08T01:21:55.858Z,16.08
2017-09-08T01:22:36.390Z,16.01
2017-09-08T01:23:16.926Z,16.05
2017-09-08T01:23:57.465Z,16.08
2017-09-08T01:24:38.004Z,16.05
2017-09-08T01:25:18.535Z,16.09
2017-09-08T01:25:59.061Z,16.08
2017-09-08T01:26:39.606Z,16.04
2017-09-08T01:27:20.140Z,15.97
2017-09-08T01:28:00.675Z,16.21
2017-09-08T01:28:41.213Z,16.04
2017-09-08T01:29:21.750Z,16.04
2017-09-08T01:30:02.286Z,16.11
2017-09-08T01:30:42.825Z,16.02
2017-09-08T01:31:23.365Z,16.09
2017-09-08T01:32:03.894Z,16.08
2017-09-08T01:32:44.430Z,16.05
2017-09-08T01:33:24.968Z,16.02
2017-09-08T01:34:05.609Z,16.14
2017-09-08T01:34:46.136Z,16.02
2017-09-08T01:35:26.677Z,16.04
2017-09-08T01:36:07.203Z,16
2017-09-08T01:36:47.736Z,16.01
2017-09-08T01:37:28.282Z,16.04
2017-09-08T01:38:08.821Z,16.04
2017-09-08T01:38:49.350Z,16.01
2017-09-08T01:39:29.889Z,16.07
2017-09-08T01:40:10.427Z,16.11
2017-09-08T01:40:50.967Z,16.07
2017-09-08T01:41:31.506Z,16.02
2017-09-08T01:42:12.041Z,16.05
2017-09-08T01:42:52.577Z,16.11
2017-09-08T01:43:33.113Z,16.05
2017-09-08T01:44:13.644Z,16.15
2017-09-08T01:44:54.183Z,16.05
2017-09-08T01:45:34.721Z,16.02
2017-09-08T01:46:15.261Z,16.02
2017-09-08T01:46:55.785Z,16.09
2017-09-08T01:47:36.325Z,16.17
2017-09-08T01:48:16.864Z,16.05
2017-09-08T01:48:57.399Z,16.09
2017-09-08T01:49:37.935Z,16.17
2017-09-08T01:50:18.463Z,16.11
2017-09-08T01:50:58.998Z,16.05
2017-09-08T01:51:39.539Z,16.02
2017-09-08T01:52:20.080Z,16.11
2017-09-08T01:53:00.613Z,16.02
2017-09-08T01:53:41.149Z,16.05
2017-09-08T01:54:21.686Z,16.07
2017-09-08T01:55:02.228Z,16.02
2017-09-08T01:55:42.768Z,16.02
2017-09-08T01:56:23.305Z,16.01
2017-09-08T01:57:03.847Z,16.05
2017-09-08T01:57:44.386Z,16.12
2017-09-08T01:58:24.925Z,16.09
2017-09-08T01:59:05.463Z,16.04
2017-09-08T01:59:45.998Z,16.09
2017-09-08T02:00:26.530Z,16.01
2017-09-08T02:01:07.078Z,16.07
2017-09-08T02:01:47.616Z,16.11
2017-09-08T02:02:28.159Z,16.07
2017-09-08T02:03:08.688Z,16.04
2017-09-08T02:03:49.224Z,16.07
2017-09-08T02:04:29.760Z,16.11
2017-09-08T02:05:10.357Z,16.08
2017-09-08T02:05:50.892Z,16.05
2017-09-08T02:06:31.435Z,15.97
2017-09-08T02:07:11.972Z,16.04
2017-09-08T02:07:52.511Z,16.05
2017-09-08T02:08:33.050Z,16.08
2017-09-08T02:09:13.572Z,16.02
2017-09-08T02:09:54.108Z,16.08
2017-09-08T02:10:34.650Z,16.04
2017-09-08T02:11:15.187Z,16.08
2017-09-08T02:11:55.718Z,15.97
2017-09-08T02:12:36.259Z,16.05
2017-09-08T02:13:16.804Z,16.08
2017-09-08T02:13:57.335Z,16.04
2017-09-08T02:14:37.877Z,16
2017-09-08T02:15:18.416Z,16.02
2017-09-08T02:15:58.949Z,16.11
2017-09-08T02:16:39.480Z,16.07
2017-09-08T02:17:20.035Z,16
2017-09-08T02:18:00.563Z,16.11
2017-09-08T02:18:41.139Z,16.02
2017-09-08T02:19:21.643Z,16.04
2017-09-08T02:20:02.181Z,16.04
2017-09-08T02:20:42.714Z,16.08
2017-09-08T02:21:23.253Z,16.04
2017-09-08T02:22:03.782Z,16
2017-09-08T02:22:44.314Z,16.04
2017-09-08T02:23:24.852Z,16.05
2017-09-08T02:24:05.397Z,16.07
2017-09-08T02:24:45.933Z,16
2017-09-08T02:25:26.460Z,16.02
2017-09-08T02:26:06.998Z,16.08
2017-09-08T02:26:47.531Z,15.96
2017-09-08T02:27:28.117Z,16.01
2017-09-08T02:28:08.653Z,16.05
2017-09-08T02:28:49.185Z,16
2017-09-08T02:29:29.719Z,16.05
2017-09-08T02:30:10.258Z,16.02
2017-09-08T02:30:50.802Z,15.94
2017-09-08T02:31:31.348Z,16
2017-09-08T02:32:11.882Z,16.02
2017-09-08T02:32:52.416Z,16.04
2017-09-08T02:33:32.951Z,16.02
2017-09-08T02:34:13.489Z,16.05
2017-09-08T02:34:54.028Z,16.02
2017-09-08T02:35:34.566Z,16.01
2017-09-08T02:36:15.105Z,16.05
2017-09-08T02:36:55.645Z,16.02
2017-09-08T02:37:36.184Z,16.01
2017-09-08T02:38:16.720Z,16
2017-09-08T02:38:57.252Z,16.01
2017-09-08T02:39:37.787Z,16.04
2017-09-08T02:40:18.335Z,16
2017-09-08T02:40:58.881Z,16.07
2017-09-08T02:41:39.416Z,16
2017-09-08T02:42:19.957Z,16.02
2017-09-08T02:43:00.493Z,16.14
2017-09-08T02:43:41.031Z,16.07
2017-09-08T02:44:21.568Z,15.97
2017-09-08T02:45:02.105Z,16.04
2017-09-08T02:45:42.639Z,16.05
2017-09-08T02:46:23.178Z,16.05
2017-09-08T02:47:03.712Z,15.97
2017-09-08T02:47:44.243Z,16.05
2017-09-08T02:48:24.781Z,16.04
2017-09-08T02:49:05.318Z,16
2017-09-08T02:49:45.853Z,15.94
2017-09-08T02:50:26.392Z,16.02
2017-09-08T02:51:06.926Z,16.04
2017-09-08T02:51:47.469Z,16.04
2017-09-08T02:52:28.010Z,16.01
2017-09-08T02:53:08.548Z,16.02
2017-09-08T02:53:49.077Z,16.07
2017-09-08T02:54:29.616Z,16.01
2017-09-08T02:55:10.161Z,16.05
2017-09-08T02:55:50.683Z,16.02
2017-09-08T02:56:31.225Z,16
2017-09-08T02:57:11.754Z,16.05
2017-09-08T02:57:52.289Z,16.01
2017-09-08T02:58:32.822Z,16.01
2017-09-08T02:59:13.392Z,16.05
2017-09-08T02:59:53.946Z,16.05
2017-09-08T03:00:34.474Z,16.02
2017-09-08T03:01:15.010Z,16.08
2017-09-08T03:01:55.550Z,16.01
2017-09-08T03:02:36.071Z,16.07
2017-09-08T03:03:16.613Z,16.01
2017-09-08T03:03:57.155Z,16.09
2017-09-08T03:04:37.694Z,16.05
2017-09-08T03:05:18.225Z,16.08
2017-09-08T03:05:58.766Z,16.02
2017-09-08T03:06:39.303Z,16
2017-09-08T03:07:19.847Z,16.02
2017-09-08T03:08:00.397Z,16.04
2017-09-08T03:08:40.935Z,16.07
2017-09-08T03:09:21.471Z,16.05
2017-09-08T03:10:02.004Z,16.05
2017-09-08T03:10:42.527Z,16.11
2017-09-08T03:11:23.056Z,16.02
2017-09-08T03:12:03.596Z,16.11
2017-09-08T03:12:44.137Z,16.04
2017-09-08T03:13:24.670Z,16.07
2017-09-08T03:14:05.205Z,16
2017-09-08T03:14:45.731Z,16.05
2017-09-08T03:15:26.264Z,16
2017-09-08T03:16:06.816Z,16.04
2017-09-08T03:16:47.355Z,16.05
2017-09-08T03:17:27.891Z,16.05
2017-09-08T03:18:08.428Z,16.02
2017-09-08T03:18:49.028Z,16
2017-09-08T03:19:29.564Z,16.01
2017-09-08T03:20:10.107Z,15.97
2017-09-08T03:20:50.646Z,16.01
2017-09-08T03:21:31.218Z,16
2017-09-08T03:22:11.787Z,16.05
2017-09-08T03:22:52.299Z,16.04
2017-09-08T03:23:32.837Z,16.05
2017-09-08T03:24:13.379Z,16.04
2017-09-08T03:24:53.900Z,16.02
2017-09-08T03:25:34.425Z,16.04
2017-09-08T03:26:14.972Z,16.05
2017-09-08T03:26:55.500Z,16.05
2017-09-08T03:27:36.081Z,16.08
2017-09-08T03:28:16.586Z,16.05
2017-09-08T03:28:57.130Z,16.02
2017-09-08T03:29:37.672Z,16
2017-09-08T03:30:18.201Z,16
2017-09-08T03:30:58.748Z,16.02
2017-09-08T03:31:39.282Z,16.04
2017-09-08T03:32:19.817Z,16.05
2017-09-08T03:33:00.363Z,15.96
2017-09-08T03:33:40.901Z,16.02
2017-09-08T03:34:21.438Z,16.07
2017-09-08T03:35:01.973Z,16.05
2017-09-08T03:35:42.505Z,16.02
2017-09-08T03:36:23.037Z,16.08
2017-09-08T03:37:03.573Z,16.11
2017-09-08T03:37:44.112Z,16.08
2017-09-08T03:38:24.655Z,15.97
2017-09-08T03:39:05.193Z,16.05
2017-09-08T03:39:45.727Z,16.11
2017-09-08T03:40:26.265Z,16.01
2017-09-08T03:41:06.800Z,16.02
2017-09-08T03:41:47.328Z,16
2017-09-08T03:42:27.864Z,16.02
2017-09-08T03:43:08.404Z,16.02
2017-09-08T03:43:48.943Z,16.05
2017-09-08T03:44:29.479Z,16.01
2017-09-08T03:45:10.009Z,16.09
2017-09-08T03:45:50.540Z,16.07
2017-09-08T03:46:31.067Z,16.05
2017-09-08T03:47:11.592Z,16.02
2017-09-08T03:47:52.117Z,16
2017-09-08T03:48:32.719Z,16
2017-09-08T03:49:13.257Z,16.01
2017-09-08T03:49:53.803Z,16.04
2017-09-08T03:50:34.330Z,16
2017-09-08T03:51:14.918Z,16.04
2017-09-08T03:51:55.393Z,16.01
2017-09-08T03:52:37.447Z,16.01
2017-09-08T03:53:18.042Z,16.05
2017-09-08T03:53:58.560Z,16.05
2017-09-08T03:54:39.110Z,16.01
2017-09-08T03:55:19.744Z,16.04
2017-09-08T03:56:00.298Z,16.04
2017-09-08T03:56:40.835Z,16.08
2017-09-08T03:57:21.363Z,16.05
2017-09-08T03:58:01.902Z,16.05
2017-09-08T03:58:42.441Z,16.11
2017-09-08T03:59:22.983Z,16
2017-09-08T04:00:03.523Z,16.01
2017-09-08T04:00:44.053Z,16.05
2017-09-08T04:01:24.595Z,16.01
2017-09-08T04:02:05.160Z,16
2017-09-08T04:02:45.650Z,16.05
2017-09-08T04:03:26.160Z,16.08
2017-09-08T04:04:06.705Z,16.04
2017-09-08T04:04:47.237Z,16.04
2017-09-08T04:05:27.778Z,16.05
2017-09-08T04:06:08.308Z,16.01
2017-09-08T04:06:48.846Z,16.04
2017-09-08T04:07:29.386Z,16.01
2017-09-08T04:08:09.928Z,16.07
2017-09-08T04:08:50.456Z,16
2017-09-08T04:09:31.019Z,15.97
2017-09-08T04:10:11.558Z,16.05
2017-09-08T04:10:52.082Z,15.93
2017-09-08T04:11:32.627Z,16.01
2017-09-08T04:12:13.127Z,15.97
2017-09-08T04:12:53.678Z,16
2017-09-08T04:13:34.152Z,15.94
2017-09-08T04:14:14.684Z,16.01
2017-09-08T04:14:55.235Z,15.92
2017-09-08T04:15:35.750Z,16.01
2017-09-08T04:16:16.276Z,16.05
2017-09-08T04:16:56.798Z,16.02
2017-09-08T04:17:37.323Z,16
2017-09-08T04:18:17.838Z,16
2017-09-08T04:18:58.378Z,16.08
2017-09-08T04:19:38.890Z,16.02
2017-09-08T04:20:19.440Z,16.02
2017-09-08T04:20:59.961Z,16.02
2017-09-08T04:21:40.493Z,16.05
2017-09-08T04:22:21.019Z,16.02
2017-09-08T04:23:01.530Z,15.92
2017-09-08T04:23:42.066Z,15.94
2017-09-08T04:24:22.601Z,16.01
2017-09-08T04:25:03.512Z,15.97
2017-09-08T04:25:44.045Z,16.04
2017-09-08T04:26:24.581Z,15.93
2017-09-08T04:27:05.090Z,16
2017-09-08T04:27:45.615Z,16.01
2017-09-08T04:28:26.146Z,16.02
2017-09-08T04:29:06.706Z,16
2017-09-08T04:29:47.237Z,16
2017-09-08T04:30:27.786Z,15.97
2017-09-08T04:31:08.320Z,16.04
2017-09-08T04:31:48.870Z,16.04
2017-09-08T04:32:29.393Z,16.05
2017-09-08T04:33:09.932Z,15.97
2017-09-08T04:33:50.475Z,16.02
2017-09-08T04:34:31.004Z,15.97
2017-09-08T04:35:11.527Z,16.05
2017-09-08T04:35:52.066Z,16.01
2017-09-08T04:36:32.592Z,16
2017-09-08T04:37:13.132Z,16.05
2017-09-08T04:37:53.668Z,16.01
2017-09-08T04:38:34.206Z,16.04
2017-09-08T04:39:14.745Z,16.05
2017-09-08T04:39:55.264Z,16
2017-09-08T04:40:35.798Z,15.9
2017-09-08T04:41:16.326Z,16.05
2017-09-08T04:41:56.857Z,16
2017-09-08T04:42:37.410Z,16.01
2017-09-08T04:43:17.930Z,16
2017-09-08T04:43:58.458Z,15.94
2017-09-08T04:44:39.018Z,16.04
2017-09-08T04:45:19.519Z,16
2017-09-08T04:46:00.056Z,16.01
2017-09-08T04:46:40.579Z,16.02
2017-09-08T04:47:21.089Z,16.05
2017-09-08T04:48:01.664Z,15.97
2017-09-08T04:48:42.194Z,16.05
2017-09-08T04:49:22.668Z,16.05
2017-09-08T04:50:03.192Z,16.04
2017-09-08T04:50:43.717Z,15.97
2017-09-08T04:51:24.306Z,16.05
2017-09-08T04:52:06.315Z,16.07
2017-09-08T04:52:46.963Z,16.12
2017-09-08T04:53:27.471Z,16.05
2017-09-08T04:54:08.008Z,16.09
2017-09-08T04:54:49.411Z,16.02
2017-09-08T04:55:29.953Z,16.05
2017-09-08T04:56:10.588Z,16.08
2017-09-08T04:56:51.016Z,16.11
2017-09-08T04:57:31.998Z,16.11
2017-09-08T04:58:12.412Z,16.12
2017-09-08T04:58:52.942Z,16.14
2017-09-08T04:59:34.482Z,16.08
2017-09-08T05:00:15.118Z,16.09
2017-09-08T05:00:55.654Z,16.05
2017-09-08T05:01:36.313Z,16.12
2017-09-08T05:02:16.810Z,16.2
2017-09-08T05:02:57.384Z,16.07
2017-09-08T05:03:38.049Z,16.15
2017-09-08T05:04:18.592Z,16.12
2017-09-08T05:05:00.267Z,16.14
2017-09-08T05:05:40.745Z,16.12
2017-09-08T05:06:21.384Z,16.15
2017-09-08T05:07:02.097Z,16.11
2017-09-08T05:07:42.821Z,16.23
2017-09-08T05:08:23.359Z,16.21
2017-09-08T05:09:05.555Z,16.24
2017-09-08T05:09:46.029Z,16.25
2017-09-08T05:10:26.514Z,16.24
2017-09-08T05:11:07.279Z,16.23
2017-09-08T05:11:47.672Z,16.24
2017-09-08T05:12:28.235Z,16.27
2017-09-08T05:13:08.780Z,16.24
2017-09-08T05:13:49.311Z,16.21
2017-09-08T05:14:29.825Z,16.28
2017-09-08T05:15:10.378Z,16.21
2017-09-08T05:15:50.896Z,16.28
2017-09-08T05:16:31.432Z,16.21
2017-09-08T05:17:11.968Z,16.17
2017-09-08T05:17:52.504Z,16.21
2017-09-08T05:18:33.049Z,16.2
2017-09-08T05:19:13.583Z,16.23
2017-09-08T05:19:54.114Z,16.3
2017-09-08T05:20:34.635Z,16.25
2017-09-08T05:21:15.180Z,16.17
2017-09-08T05:21:55.717Z,16.2
2017-09-08T05:22:36.249Z,16.23
2017-09-08T05:23:16.765Z,16.23
2017-09-08T05:23:57.284Z,16.21
2017-09-08T05:24:37.816Z,16.2
2017-09-08T05:25:18.361Z,16.24
2017-09-08T05:25:58.889Z,16.24
2017-09-08T05:26:39.414Z,16.21
2017-09-08T05:27:19.934Z,16.21
2017-09-08T05:28:00.465Z,16.27
2017-09-08T05:28:40.978Z,16.28
2017-09-08T05:29:21.543Z,16.27
2017-09-08T05:30:02.114Z,16.21
2017-09-08T05:30:42.643Z,16.27
2017-09-08T05:31:23.167Z,16.25
2017-09-08T05:32:03.699Z,16.2
2017-09-08T05:32:44.228Z,16.27
2017-09-08T05:33:24.772Z,16.15
2017-09-08T05:34:05.301Z,16.17
2017-09-08T05:34:45.830Z,16.15
2017-09-08T05:35:26.340Z,16.2
2017-09-08T05:36:06.884Z,16.2
2017-09-08T05:36:47.406Z,16.24
2017-09-08T05:37:27.936Z,16.24
2017-09-08T05:38:08.468Z,16.21
2017-09-08T05:38:48.998Z,16.14
2017-09-08T05:39:29.512Z,16.15
2017-09-08T05:40:10.050Z,16.23
2017-09-08T05:40:50.563Z,16.14
2017-09-08T05:41:32.719Z,16.24
2017-09-08T05:42:13.264Z,16.17
2017-09-08T05:42:53.795Z,16.23
2017-09-08T05:43:34.331Z,16.14
2017-09-08T05:44:14.855Z,16.14
2017-09-08T05:44:55.381Z,16.07
2017-09-08T05:45:35.913Z,16.08
2017-09-08T05:46:16.442Z,16.09
2017-09-08T05:46:56.978Z,16.11
2017-09-08T05:47:37.506Z,16.11
2017-09-08T05:48:18.038Z,16.11
2017-09-08T05:48:58.583Z,16.11
2017-09-08T05:49:39.112Z,16.08
2017-09-08T05:50:19.654Z,16.15
2017-09-08T05:51:00.183Z,16.21
2017-09-08T05:51:40.710Z,16.12
2017-09-08T05:52:21.239Z,16.09
2017-09-08T05:53:01.775Z,16.14
2017-09-08T05:53:42.300Z,16.12
2017-09-08T05:54:22.831Z,16.09
2017-09-08T05:55:03.373Z,16.12
2017-09-08T05:55:43.917Z,16.17
2017-09-08T05:56:24.440Z,16.12
2017-09-08T05:57:04.971Z,16.11
2017-09-08T05:57:45.507Z,16.3
2017-09-08T05:58:26.042Z,16.27
2017-09-08T05:59:06.580Z,16.24
2017-09-08T05:59:47.161Z,16.21
2017-09-08T06:00:27.700Z,16.2
2017-09-08T06:01:08.224Z,16.14
2017-09-08T06:01:48.779Z,16.23
2017-09-08T06:02:29.308Z,16.25
2017-09-08T06:03:09.832Z,16.28
2017-09-08T06:03:50.401Z,16.25
2017-09-08T06:04:30.935Z,16.28
2017-09-08T06:05:11.479Z,16.31
2017-09-08T06:05:52.015Z,16.25
2017-09-08T06:06:32.547Z,16.3
2017-09-08T06:07:13.068Z,16.24
2017-09-08T06:07:53.607Z,16.27
2017-09-08T06:08:34.121Z,16.27
2017-09-08T06:09:14.646Z,16.35
2017-09-08T06:09:55.182Z,16.28
2017-09-08T06:10:35.701Z,16.24
2017-09-08T06:11:16.235Z,16.3
2017-09-08T06:11:56.758Z,16.34
2017-09-08T06:12:37.292Z,16.3
2017-09-08T06:13:17.826Z,16.34
2017-09-08T06:13:58.362Z,16.31
2017-09-08T06:14:38.895Z,16.31
2017-09-08T06:15:19.437Z,16.27
2017-09-08T06:15:59.984Z,16.31
2017-09-08T06:16:40.521Z,16.27
2017-09-08T06:17:21.054Z,16.21
2017-09-08T06:18:01.597Z,16.25
2017-09-08T06:18:42.125Z,16.24
2017-09-08T06:19:22.669Z,16.2
2017-09-08T06:20:03.195Z,16.25
2017-09-08T06:20:43.731Z,16.17
2017-09-08T06:21:24.267Z,16.2
2017-09-08T06:22:04.802Z,16.3
2017-09-08T06:22:45.330Z,16.23
2017-09-08T06:23:25.871Z,16.27
2017-09-08T06:24:06.399Z,16.2
2017-09-08T06:24:46.923Z,16.27
2017-09-08T06:25:27.470Z,16.15
2017-09-08T06:26:08.012Z,16.14
2017-09-08T06:26:48.534Z,16.24
2017-09-08T06:27:29.067Z,16.15
2017-09-08T06:28:09.596Z,16.23
2017-09-08T06:28:50.123Z,16.25
2017-09-08T06:29:30.659Z,16.21
2017-09-08T06:30:11.189Z,16.23
2017-09-08T06:30:51.717Z,16.17
2017-09-08T06:31:32.255Z,16.2
2017-09-08T06:32:12.792Z,16.17
2017-09-08T06:32:53.326Z,16.21
2017-09-08T06:33:33.836Z,16.28
2017-09-08T06:34:14.372Z,16.21
2017-09-08T06:34:54.910Z,16.15
2017-09-08T06:35:35.458Z,16.23
2017-09-08T06:36:15.990Z,16.21
2017-09-08T06:36:56.515Z,16.21
2017-09-08T06:37:37.103Z,16.24
2017-09-08T06:38:17.641Z,16.23
2017-09-08T06:38:58.186Z,16.2
2017-09-08T06:39:38.719Z,16.25
2017-09-08T06:40:19.247Z,16.24
2017-09-08T06:40:59.781Z,16.21
2017-09-08T06:41:40.293Z,16.31
2017-09-08T06:42:20.834Z,16.23
2017-09-08T06:43:01.372Z,16.2
2017-09-08T06:43:41.886Z,16.21
2017-09-08T06:44:22.420Z,16.2
2017-09-08T06:45:02.960Z,16.28
2017-09-08T06:45:43.496Z,16.21
2017-09-08T06:46:24.074Z,16.21
2017-09-08T06:47:04.570Z,16.28
2017-09-08T06:47:45.102Z,16.17
2017-09-08T06:48:25.632Z,16.17
2017-09-08T06:49:06.162Z,16.2
2017-09-08T06:49:46.694Z,16.21
2017-09-08T06:50:27.198Z,16.21
2017-09-08T06:51:07.747Z,16.25
2017-09-08T06:51:48.273Z,16.31
2017-09-08T06:52:28.813Z,16.21
2017-09-08T06:53:09.347Z,16.27
2017-09-08T06:53:49.867Z,16.25
2017-09-08T06:54:30.409Z,16.25
2017-09-08T06:55:10.928Z,16.33
2017-09-08T06:55:51.484Z,16.25
2017-09-08T06:56:32.014Z,16.34
2017-09-08T06:57:12.535Z,16.33
2017-09-08T06:57:53.073Z,16.24
2017-09-08T06:58:33.590Z,16.33
2017-09-08T06:59:14.125Z,16.34
2017-09-08T06:59:54.664Z,16.28
2017-09-08T07:00:35.205Z,16.25
2017-09-08T07:01:15.772Z,16.33
2017-09-08T07:01:56.306Z,16.27
2017-09-08T07:02:36.847Z,16.28
2017-09-08T07:03:17.383Z,16.25
2017-09-08T07:03:57.913Z,16.25
2017-09-08T07:04:38.454Z,16.28
2017-09-08T07:05:18.992Z,16.35
2017-09-08T07:05:59.527Z,16.25
2017-09-08T07:06:40.061Z,16.33
2017-09-08T07:07:20.603Z,16.28
2017-09-08T07:08:01.132Z,16.28
2017-09-08T07:08:41.650Z,16.28
2017-09-08T07:09:22.183Z,16.31
2017-09-08T07:10:02.727Z,16.25
2017-09-08T07:10:43.265Z,16.3
2017-09-08T07:11:23.804Z,16.35
2017-09-08T07:12:04.333Z,16.25
2017-09-08T07:12:44.871Z,16.27
2017-09-08T07:13:25.405Z,16.24
2017-09-08T07:14:05.943Z,16.28
2017-09-08T07:14:46.482Z,16.23
2017-09-08T07:15:27.013Z,16.39
2017-09-08T07:16:07.533Z,16.28
2017-09-08T07:16:48.080Z,16.3
2017-09-08T07:17:28.604Z,16.28
2017-09-08T07:18:09.127Z,16.27
2017-09-08T07:18:49.667Z,16.25
2017-09-08T07:19:30.189Z,16.41
2017-09-08T07:20:10.722Z,16.23
2017-09-08T07:20:51.256Z,16.33
2017-09-08T07:21:31.781Z,16.24
2017-09-08T07:22:12.329Z,16.38
2017-09-08T07:22:52.866Z,16.39
2017-09-08T07:23:33.404Z,16.41
2017-09-08T07:24:13.927Z,16.38
2017-09-08T07:24:54.462Z,16.41
2017-09-08T07:25:34.992Z,16.43
2017-09-08T07:26:15.518Z,16.39
2017-09-08T07:26:56.054Z,16.38
2017-09-08T07:27:36.592Z,16.35
2017-09-08T07:28:17.116Z,16.35
2017-09-08T07:28:57.653Z,16.43
2017-09-08T07:29:38.188Z,16.38
2017-09-08T07:30:18.725Z,16.42
2017-09-08T07:30:59.258Z,16.41
2017-09-08T07:31:39.781Z,16.39
2017-09-08T07:32:20.317Z,16.42
2017-09-08T07:33:00.853Z,16.39
2017-09-08T07:33:41.384Z,16.45
2017-09-08T07:34:21.924Z,16.41
2017-09-08T07:35:02.454Z,16.41
2017-09-08T07:35:42.990Z,16.46
2017-09-08T07:36:23.519Z,16.43
2017-09-08T07:37:04.056Z,16.43
2017-09-08T07:37:44.581Z,16.43
2017-09-08T07:38:25.126Z,16.42
2017-09-08T07:39:05.670Z,16.45
2017-09-08T07:39:46.227Z,16.42
2017-09-08T07:40:26.743Z,16.42
2017-09-08T07:41:07.273Z,16.43
2017-09-08T07:41:47.789Z,16.41
2017-09-08T07:42:28.315Z,16.42
2017-09-08T07:43:08.859Z,16.42
2017-09-08T07:43:49.384Z,16.46
2017-09-08T07:44:29.936Z,16.5
2017-09-08T07:45:10.462Z,16.56
2017-09-08T07:45:51.007Z,16.5
2017-09-08T07:46:31.544Z,16.52
2017-09-08T07:47:12.080Z,16.45
2017-09-08T07:47:52.617Z,16.56
2017-09-08T07:48:33.164Z,16.5
2017-09-08T07:49:13.678Z,16.58
2017-09-08T07:49:54.220Z,16.58
2017-09-08T07:50:34.761Z,16.61
2017-09-08T07:51:15.289Z,16.57
2017-09-08T07:51:55.815Z,16.53
2017-09-08T07:52:36.350Z,16.6
2017-09-08T07:53:16.889Z,16.57
2017-09-08T07:53:57.414Z,16.58
2017-09-08T07:54:37.934Z,16.57
2017-09-08T07:55:18.486Z,16.64
2017-09-08T07:55:59.004Z,16.63
2017-09-08T07:56:39.547Z,16.58
2017-09-08T07:57:20.085Z,16.61
2017-09-08T07:58:00.611Z,16.7
2017-09-08T07:58:41.168Z,16.67
2017-09-08T07:59:21.710Z,16.68
2017-09-08T08:00:02.269Z,16.68
2017-09-08T08:00:42.812Z,16.68
2017-09-08T08:01:23.346Z,16.68
2017-09-08T08:02:03.881Z,16.68
2017-09-08T08:02:44.416Z,16.68
2017-09-08T08:03:24.945Z,16.66
2017-09-08T08:04:05.489Z,16.67
2017-09-08T08:04:46.019Z,16.66
2017-09-08T08:05:26.562Z,16.7
2017-09-08T08:06:07.089Z,16.67
2017-09-08T08:06:47.624Z,16.73
2017-09-08T08:07:28.157Z,16.68
2017-09-08T08:08:08.699Z,16.67
2017-09-08T08:08:49.200Z,16.66
2017-09-08T08:09:29.754Z,16.68
2017-09-08T08:10:10.292Z,16.67
2017-09-08T08:10:50.811Z,16.61
2017-09-08T08:11:31.354Z,16.68
2017-09-08T08:12:11.893Z,16.64
2017-09-08T08:12:52.416Z,16.68
2017-09-08T08:13:32.971Z,16.7
2017-09-08T08:14:13.514Z,16.71
2017-09-08T08:14:54.056Z,16.68
2017-09-08T08:15:34.598Z,16.67
2017-09-08T08:16:15.144Z,16.67
2017-09-08T08:16:55.669Z,16.67
2017-09-08T08:17:36.209Z,16.66
2017-09-08T08:18:16.734Z,16.6
2017-09-08T08:18:57.273Z,16.68
2017-09-08T08:19:37.803Z,16.63
2017-09-08T08:20:18.346Z,16.7
2017-09-08T08:20:58.875Z,16.7
2017-09-08T08:21:39.405Z,16.73
2017-09-08T08:22:19.943Z,16.82
2017-09-08T08:23:00.476Z,16.83
2017-09-08T08:23:41.015Z,16.82
2017-09-08T08:24:21.550Z,16.86
2017-09-08T08:25:02.075Z,16.85
2017-09-08T08:25:42.606Z,16.81
2017-09-08T08:26:23.132Z,16.83
2017-09-08T08:27:03.668Z,16.98
2017-09-08T08:27:44.206Z,16.93
2017-09-08T08:28:24.745Z,16.89
2017-09-08T08:29:05.284Z,16.91
2017-09-08T08:29:45.813Z,16.94
2017-09-08T08:30:26.342Z,17
2017-09-08T08:31:06.880Z,17
2017-09-08T08:31:47.437Z,16.97
2017-09-08T08:32:27.990Z,17.01
2017-09-08T08:33:08.516Z,17.04
2017-09-08T08:33:49.033Z,17.06
2017-09-08T08:34:29.569Z,17.03
2017-09-08T08:35:10.104Z,17.07
2017-09-08T08:35:50.645Z,17
2017-09-08T08:36:31.172Z,17.01
2017-09-08T08:37:11.709Z,16.98
2017-09-08T08:37:52.246Z,17.01
2017-09-08T08:38:32.775Z,17
2017-09-08T08:39:13.318Z,17.06
2017-09-08T08:39:53.858Z,17.01
2017-09-08T08:40:34.388Z,16.97
2017-09-08T08:41:14.917Z,16.96
2017-09-08T08:41:55.477Z,16.98
2017-09-08T08:42:36.002Z,17.07
2017-09-08T08:43:16.525Z,17.01
2017-09-08T08:43:57.059Z,17.03
2017-09-08T08:44:37.590Z,17.04
2017-09-08T08:45:18.123Z,16.97
2017-09-08T08:45:58.645Z,17.04
2017-09-08T08:46:39.186Z,17